Time;durP1;ratioP1;P1;durP2;ratioP2;P2;SDS_P1;SDS_P2;PMS_P1;PMS_P2;Temp;Humidity;BMP_temperature;BMP_pressure;BME280_temperature;BME280_humidity;BME280_pressure;Samples;Min_cycle;Max_cycle;Signal;HPM_P1;HPM_P2
2022/07/23 00:01:05;;;;;;;;;;;25.70;72.30;;;;;;4955307;28;19931;-75
2022/07/23 00:03:32;;;;;;;;;;;25.60;72.20;;;;;;4961842;28;20011;-75
2022/07/23 00:05:59;;;;;;;;;;;25.60;72.30;;;;;;4951882;28;19927;-75
2022/07/23 00:08:25;;;;;;;;;;;25.60;72.60;;;;;;4962321;28;20359;-75
2022/07/23 00:10:52;;;;;;;;;;;25.50;72.50;;;;;;4961569;28;20277;-76
2022/07/23 00:13:19;;;;;;;;;;;25.50;72.80;;;;;;4963866;28;19964;-75
2022/07/23 00:15:46;;;;;;;;;;;25.50;72.80;;;;;;4961623;28;20025;-75
2022/07/23 00:18:14;;;;;;;;;;;25.40;72.80;;;;;;5029765;28;19988;-74
2022/07/23 00:20:41;;;;;;;;;;;25.40;72.80;;;;;;4956168;28;19926;-76
2022/07/23 00:23:08;;;;;;;;;;;25.40;72.90;;;;;;4967986;28;19938;-76
2022/07/23 00:25:35;;;;;;;;;;;25.30;72.90;;;;;;4962846;28;19970;-75
2022/07/23 00:28:02;;;;;;;;;;;25.30;72.90;;;;;;4962759;28;21668;-74
2022/07/23 00:30:30;;;;;;;;;;;25.30;73.20;;;;;;4964630;28;19926;-75
2022/07/23 00:32:58;;;;;;;;;;;25.30;73.40;;;;;;4963061;28;20025;-75
2022/07/23 00:35:27;;;;;;;;;;;25.20;73.70;;;;;;4961077;28;19926;-75
2022/07/23 00:37:54;;;;;;;;;;;25.20;74.00;;;;;;5023996;28;19930;-74
2022/07/23 00:40:21;;;;;;;;;;;25.20;74.20;;;;;;4959709;28;19930;-74
2022/07/23 00:42:48;;;;;;;;;;;25.20;74.40;;;;;;4962622;28;19988;-76
2022/07/23 00:45:15;;;;;;;;;;;25.10;74.60;;;;;;4957488;28;20367;-75
2022/07/23 00:47:42;;;;;;;;;;;25.10;74.60;;;;;;4957820;28;20038;-75
2022/07/23 00:50:09;;;;;;;;;;;25.10;74.60;;;;;;4962360;28;20302;-75
2022/07/23 00:52:38;;;;;;;;;;;25.10;74.70;;;;;;4962249;28;20400;-75
2022/07/23 00:55:06;;;;;;;;;;;25.00;74.70;;;;;;4964424;28;19999;-75
2022/07/23 00:57:33;;;;;;;;;;;25.00;74.90;;;;;;5030425;28;20307;-75
2022/07/23 01:00:00;;;;;;;;;;;25.00;75.20;;;;;;5027129;28;20443;-76
2022/07/23 01:02:28;;;;;;;;;;;25.00;75.20;;;;;;5049770;23;19914;-96
2022/07/23 01:04:56;;;;;;;;;;;24.90;75.20;;;;;;5089375;28;19912;-95
2022/07/23 01:07:24;;;;;;;;;;;24.90;75.40;;;;;;5088605;28;19915;-96
2022/07/23 01:09:54;;;;;;;;;;;24.90;75.70;;;;;;5106525;28;19912;-94
2022/07/23 01:12:21;;;;;;;;;;;24.90;75.50;;;;;;5084473;28;19912;-93
2022/07/23 01:14:54;;;;;;;;;;;24.90;75.90;;;;;;5085210;28;19962;-95
2022/07/23 01:17:23;;;;;;;;;;;24.80;76.10;;;;;;5087838;28;19923;-95
2022/07/23 01:19:53;;;;;;;;;;;24.80;75.90;;;;;;5085665;28;19948;-94
2022/07/23 01:22:22;;;;;;;;;;;24.80;76.20;;;;;;5088591;22;19997;-75
2022/07/23 01:24:50;;;;;;;;;;;24.70;76.20;;;;;;5070914;28;19955;-76
2022/07/23 01:27:22;;;;;;;;;;;24.70;76.10;;;;;;5054636;28;20370;-75
2022/07/23 01:29:52;;;;;;;;;;;24.70;76.10;;;;;;5076814;28;19925;-75
2022/07/23 01:32:21;;;;;;;;;;;24.70;76.10;;;;;;5043125;28;19928;-75
2022/07/23 01:34:48;;;;;;;;;;;24.70;76.10;;;;;;5045208;28;19924;-76
2022/07/23 01:37:15;;;;;;;;;;;24.60;76.10;;;;;;5063495;28;20340;-75
2022/07/23 01:39:42;;;;;;;;;;;24.60;76.00;;;;;;5051671;28;19967;-76
2022/07/23 01:42:10;;;;;;;;;;;24.60;75.80;;;;;;5059253;28;19928;-75
2022/07/23 01:44:37;;;;;;;;;;;24.60;76.00;;;;;;5044758;28;19982;-76
2022/07/23 01:47:05;;;;;;;;;;;24.60;76.00;;;;;;5048084;28;20298;-75
2022/07/23 01:49:32;;;;;;;;;;;24.50;76.00;;;;;;5041764;28;19925;-75
2022/07/23 01:52:02;;;;;;;;;;;24.50;76.10;;;;;;5058620;28;20359;-75
2022/07/23 01:54:40;;;;;;;;;;;24.50;75.90;;;;;;5039872;28;20473;-76
2022/07/23 01:57:09;;;;;;;;;;;24.50;75.90;;;;;;5035821;28;19932;-75
2022/07/23 01:59:39;;;;;;;;;;;24.50;76.10;;;;;;5062281;28;19925;-75
2022/07/23 02:02:06;;;;;;;;;;;24.40;76.30;;;;;;5038537;28;20356;-75
2022/07/23 02:04:36;;;;;;;;;;;24.40;76.30;;;;;;5041113;28;19952;-75
2022/07/23 02:07:03;;;;;;;;;;;24.30;76.30;;;;;;5061236;28;20031;-75
2022/07/23 02:09:30;;;;;;;;;;;24.30;76.30;;;;;;5048190;28;19924;-76
2022/07/23 02:11:57;;;;;;;;;;;24.30;76.20;;;;;;5065146;28;20160;-76
2022/07/23 02:14:26;;;;;;;;;;;24.30;75.90;;;;;;5038570;28;20512;-75
2022/07/23 02:16:54;;;;;;;;;;;24.30;76.40;;;;;;5046724;28;19933;-75
2022/07/23 02:19:21;;;;;;;;;;;24.20;76.40;;;;;;5047250;28;19943;-75
2022/07/23 02:21:48;;;;;;;;;;;24.30;76.60;;;;;;5050316;28;19939;-75
2022/07/23 02:24:15;;;;;;;;;;;24.20;76.40;;;;;;5060227;28;19928;-75
2022/07/23 02:26:42;;;;;;;;;;;24.20;76.60;;;;;;5047040;28;20007;-75
2022/07/23 02:29:09;;;;;;;;;;;24.20;76.60;;;;;;5048494;28;19924;-75
2022/07/23 02:31:36;;;;;;;;;;;24.10;76.60;;;;;;5045864;28;20008;-75
2022/07/23 02:34:05;;;;;;;;;;;24.20;76.80;;;;;;5039572;28;19933;-75
2022/07/23 02:36:32;;;;;;;;;;;24.10;76.90;;;;;;5047095;28;20070;-75
2022/07/23 02:38:59;;;;;;;;;;;24.10;77.00;;;;;;5045452;28;19928;-75
2022/07/23 02:41:29;;;;;;;;;;;24.10;77.10;;;;;;5045122;28;20395;-75
2022/07/23 02:43:56;;;;;;;;;;;24.10;77.00;;;;;;5042568;28;19928;-76
2022/07/23 02:46:23;;;;;;;;;;;24.00;76.90;;;;;;5044194;28;19932;-74
2022/07/23 02:48:50;;;;;;;;;;;24.00;76.90;;;;;;5045824;28;19970;-76
2022/07/23 02:51:18;;;;;;;;;;;24.00;76.90;;;;;;5046909;28;20390;-75
2022/07/23 02:53:54;;;;;;;;;;;24.00;76.90;;;;;;5059307;28;20019;-75
2022/07/23 02:56:21;;;;;;;;;;;24.00;77.00;;;;;;5043089;28;19936;-75
2022/07/23 02:58:48;;;;;;;;;;;23.90;76.90;;;;;;5054723;28;20015;-75
2022/07/23 03:01:15;;;;;;;;;;;23.90;77.10;;;;;;5056205;28;19970;-76
2022/07/23 03:03:42;;;;;;;;;;;23.90;77.30;;;;;;5046450;28;19971;-75
2022/07/23 03:06:09;;;;;;;;;;;23.90;77.50;;;;;;5049870;28;19982;-75
2022/07/23 03:08:37;;;;;;;;;;;23.90;77.40;;;;;;5044783;28;19931;-74
2022/07/23 03:11:06;;;;;;;;;;;23.80;77.30;;;;;;5050978;28;19931;-75
2022/07/23 03:13:33;;;;;;;;;;;23.80;77.50;;;;;;5055175;28;20017;-76
2022/07/23 03:16:00;;;;;;;;;;;23.80;76.80;;;;;;5044284;28;19933;-75
2022/07/23 03:18:27;;;;;;;;;;;23.80;77.50;;;;;;5049327;28;19925;-75
2022/07/23 03:20:54;;;;;;;;;;;23.80;77.70;;;;;;5064649;28;20003;-76
2022/07/23 03:23:22;;;;;;;;;;;23.80;77.60;;;;;;5042247;28;19931;-75
2022/07/23 03:25:50;;;;;;;;;;;23.70;77.40;;;;;;5067413;28;20484;-76
2022/07/23 03:28:17;;;;;;;;;;;23.70;77.50;;;;;;5042532;28;19925;-75
2022/07/23 03:30:46;;;;;;;;;;;23.70;77.70;;;;;;5059731;28;19932;-74
2022/07/23 03:33:13;;;;;;;;;;;23.70;78.70;;;;;;5043071;28;20452;-76
2022/07/23 03:35:40;;;;;;;;;;;23.70;77.90;;;;;;5058069;28;19929;-75
2022/07/23 03:38:17;;;;;;;;;;;23.70;78.00;;;;;;5041612;28;19931;-74
2022/07/23 03:40:43;;;;;;;;;;;23.60;77.90;;;;;;5049183;28;19973;-76
2022/07/23 03:43:12;;;;;;;;;;;23.60;85.50;;;;;;5058608;22;19925;-79
2022/07/23 03:45:39;;;;;;;;;;;23.60;82.00;;;;;;5051317;28;19955;-80
2022/07/23 03:48:10;;;;;;;;;;;;;;;;;;5034598;28;20689;-79
2022/07/23 03:50:37;;;;;;;;;;;;;;;;;;5046707;28;19933;-80
2022/07/23 03:53:05;;;;;;;;;;;;;;;;;;5024971;28;19925;-80
2022/07/23 03:55:34;;;;;;;;;;;;;;;;;;5047430;28;20298;-79
2022/07/23 03:58:01;;;;;;;;;;;;;;;;;;5030656;28;20050;-79
2022/07/23 04:00:28;;;;;;;;;;;;;;;;;;5037217;28;19929;-79
2022/07/23 04:02:55;;;;;;;;;;;;;;;;;;5025533;28;19931;-79
2022/07/23 04:05:22;;;;;;;;;;;;;;;;;;5051480;28;19928;-80
2022/07/23 04:07:53;;;;;;;;;;;;;;;;;;5030890;28;19928;-79
2022/07/23 04:10:20;;;;;;;;;;;;;;;;;;5045819;28;19936;-80
2022/07/23 04:12:47;;;;;;;;;;;;;;;;;;5027731;28;20391;-80
2022/07/23 04:15:14;;;;;;;;;;;;;;;;;;5037382;28;19978;-80
2022/07/23 04:17:43;;;;;;;;;;;;;;;;;;5030982;28;20011;-80
2022/07/23 04:20:10;;;;;;;;;;;;;;;;;;5028375;28;19963;-80
2022/07/23 04:22:44;;;;;;;;;;;;;;;;;;5031589;28;19936;-80
2022/07/23 04:25:13;;;;;;;;;;;23.50;77.40;;;;;;5032943;28;20515;-80
2022/07/23 04:27:41;;;;;;;;;;;23.50;78.30;;;;;;5033149;28;19976;-80
2022/07/23 04:30:09;;;;;;;;;;;23.40;78.40;;;;;;5029640;28;19928;-80
2022/07/23 04:32:36;;;;;;;;;;;23.30;78.60;;;;;;5041159;28;19925;-80
2022/07/23 04:35:07;;;;;;;;;;;23.30;78.80;;;;;;5031388;28;19929;-80
2022/07/23 04:37:34;;;;;;;;;;;23.20;78.70;;;;;;5024873;28;19933;-80
2022/07/23 04:40:01;;;;;;;;;;;23.20;78.80;;;;;;5033314;28;20590;-80
2022/07/23 04:42:29;;;;;;;;;;;23.20;78.80;;;;;;5026783;28;19929;-80
2022/07/23 04:44:56;;;;;;;;;;;23.10;79.00;;;;;;5029317;28;19940;-80
2022/07/23 04:47:23;;;;;;;;;;;23.10;79.10;;;;;;5044045;28;20308;-80
2022/07/23 04:49:50;;;;;;;;;;;23.10;78.90;;;;;;5029778;28;20310;-80
2022/07/23 04:52:17;;;;;;;;;;;23.10;78.90;;;;;;5048718;28;20170;-80
2022/07/23 04:54:44;;;;;;;;;;;23.10;78.90;;;;;;5027671;28;20337;-80
2022/07/23 04:57:11;;;;;;;;;;;23.00;78.80;;;;;;5048839;28;19924;-80
2022/07/23 04:59:39;;;;;;;;;;;23.00;78.80;;;;;;5032066;28;19939;-80
2022/07/23 05:02:08;;;;;;;;;;;23.00;78.80;;;;;;5023559;28;19925;-80
2022/07/23 05:04:35;;;;;;;;;;;23.00;78.80;;;;;;5053448;28;19925;-80
2022/07/23 05:07:02;;;;;;;;;;;23.00;78.70;;;;;;5040703;28;21548;-80
2022/07/23 05:09:30;;;;;;;;;;;23.00;78.80;;;;;;5032546;28;20000;-80
2022/07/23 05:11:57;;;;;;;;;;;22.90;78.50;;;;;;5024728;28;19925;-80
2022/07/23 05:14:24;;;;;;;;;;;22.90;78.80;;;;;;5025269;28;19929;-80
2022/07/23 05:16:53;;;;;;;;;;;22.90;78.90;;;;;;5031507;28;19925;-80
2022/07/23 05:19:23;;;;;;;;;;;22.90;79.40;;;;;;5041155;28;19925;-80
2022/07/23 05:21:50;;;;;;;;;;;22.90;79.90;;;;;;5025354;28;19974;-80
2022/07/23 05:24:17;;;;;;;;;;;22.90;80.20;;;;;;5041508;28;19932;-79
2022/07/23 05:26:43;;;;;;;;;;;22.80;79.80;;;;;;5029923;28;19925;-80
2022/07/23 05:29:11;;;;;;;;;;;22.80;79.80;;;;;;5027964;28;19971;-80
2022/07/23 05:31:38;;;;;;;;;;;22.80;79.90;;;;;;5024472;28;19932;-79
2022/07/23 05:34:07;;;;;;;;;;;22.80;80.20;;;;;;5027403;28;19967;-80
2022/07/23 05:36:35;;;;;;;;;;;22.80;80.20;;;;;;5018408;28;19929;-79
2022/07/23 05:39:03;;;;;;;;;;;22.70;80.00;;;;;;5018560;28;19933;-79
2022/07/23 05:41:33;;;;;;;;;;;22.70;80.60;;;;;;5042609;28;20694;-79
2022/07/23 05:44:02;;;;;;;;;;;22.70;80.70;;;;;;5029466;28;19952;-78
2022/07/23 05:46:28;;;;;;;;;;;22.70;80.60;;;;;;5026185;28;19924;-78
2022/07/23 05:48:59;;;;;;;;;;;22.70;80.80;;;;;;5019336;28;19932;-78
2022/07/23 05:51:47;;;;;;;;;;;22.70;80.70;;;;;;5037262;28;19932;-78
2022/07/23 05:54:16;;;;;;;;;;;22.70;80.70;;;;;;5040881;28;19925;-78
2022/07/23 05:56:43;;;;;;;;;;;22.60;80.60;;;;;;5030297;28;19925;-78
2022/07/23 05:59:11;;;;;;;;;;;22.60;80.90;;;;;;5023664;28;20304;-78
2022/07/23 06:01:38;;;;;;;;;;;22.60;80.90;;;;;;5038063;28;20030;-78
2022/07/23 06:04:09;;;;;;;;;;;22.60;80.90;;;;;;5024057;28;19929;-78
2022/07/23 06:06:39;;;;;;;;;;;22.60;80.90;;;;;;5037693;28;19933;-78
2022/07/23 06:09:10;;;;;;;;;;;22.60;81.00;;;;;;5022064;28;20019;-79
2022/07/23 06:11:38;;;;;;;;;;;22.50;80.60;;;;;;5022365;28;19925;-78
2022/07/23 06:14:05;;;;;;;;;;;22.50;80.60;;;;;;5041239;28;19935;-78
2022/07/23 06:16:46;;;;;;;;;;;22.50;80.50;;;;;;5015097;28;20457;-78
2022/07/23 06:19:13;;;;;;;;;;;22.50;80.30;;;;;;5017323;28;19950;-78
2022/07/23 06:21:40;;;;;;;;;;;22.50;80.50;;;;;;5018136;28;20393;-78
2022/07/23 06:24:08;;;;;;;;;;;22.50;80.50;;;;;;5025670;28;19964;-79
2022/07/23 06:26:35;;;;;;;;;;;22.50;80.50;;;;;;5016702;28;19933;-79
2022/07/23 06:29:02;;;;;;;;;;;22.40;80.20;;;;;;5011360;28;19932;-79
2022/07/23 06:31:29;;;;;;;;;;;22.40;80.10;;;;;;5038100;28;19956;-79
2022/07/23 06:33:56;;;;;;;;;;;22.40;80.20;;;;;;5032700;28;19941;-79
2022/07/23 06:36:22;;;;;;;;;;;22.40;80.40;;;;;;5020228;28;19932;-79
2022/07/23 06:38:49;;;;;;;;;;;22.40;80.50;;;;;;5034402;28;20027;-79
2022/07/23 06:41:18;;;;;;;;;;;22.40;80.60;;;;;;5012637;28;19925;-79
2022/07/23 06:43:45;;;;;;;;;;;22.40;80.50;;;;;;5035590;28;20322;-79
2022/07/23 06:46:14;;;;;;;;;;;22.30;80.50;;;;;;5007468;28;20071;-78
2022/07/23 06:48:41;;;;;;;;;;;22.40;80.60;;;;;;5023440;28;20031;-80
2022/07/23 06:51:08;;;;;;;;;;;22.30;80.50;;;;;;5011923;28;20402;-78
2022/07/23 06:53:34;;;;;;;;;;;22.30;80.60;;;;;;5029929;28;19932;-80
2022/07/23 06:56:01;;;;;;;;;;;22.30;80.70;;;;;;5017621;28;19943;-79
2022/07/23 06:58:29;;;;;;;;;;;22.30;81.10;;;;;;5012249;28;19983;-79
2022/07/23 07:00:57;;;;;;;;;;;22.30;82.60;;;;;;5026437;28;19929;-78
2022/07/23 07:03:24;;;;;;;;;;;22.30;82.50;;;;;;5026183;28;19929;-80
2022/07/23 07:05:51;;;;;;;;;;;22.30;82.60;;;;;;5036992;28;19929;-78
2022/07/23 07:08:18;;;;;;;;;;;22.30;82.40;;;;;;5016620;28;19929;-79
2022/07/23 07:10:45;;;;;;;;;;;22.30;82.40;;;;;;5034102;28;19929;-78
2022/07/23 07:13:12;;;;;;;;;;;22.30;82.20;;;;;;5034573;28;19931;-80
2022/07/23 07:15:40;;;;;;;;;;;22.20;82.50;;;;;;5037779;28;19925;-78
2022/07/23 07:18:07;;;;;;;;;;;22.10;81.70;;;;;;5042981;28;20051;-79
2022/07/23 07:20:34;;;;;;;;;;;22.10;81.50;;;;;;5042359;28;21012;-78
2022/07/23 07:23:01;;;;;;;;;;;22.10;81.50;;;;;;5031160;28;20277;-79
2022/07/23 07:25:28;;;;;;;;;;;22.10;81.60;;;;;;5045188;28;20173;-78
2022/07/23 07:27:54;;;;;;;;;;;22.10;82.20;;;;;;5043617;28;20381;-78
2022/07/23 07:30:21;;;;;;;;;;;22.10;82.90;;;;;;5044574;28;19999;-78
2022/07/23 07:32:49;;;;;;;;;;;22.00;82.80;;;;;;5037176;28;19995;-79
2022/07/23 07:35:16;;;;;;;;;;;22.00;82.80;;;;;;5035444;28;19948;-79
2022/07/23 07:37:43;;;;;;;;;;;22.00;82.90;;;;;;5038520;28;19978;-78
2022/07/23 07:40:10;;;;;;;;;;;22.00;83.10;;;;;;5045650;28;20365;-79
2022/07/23 07:42:45;;;;;;;;;;;22.00;83.00;;;;;;5042748;28;20406;-78
2022/07/23 07:45:11;;;;;;;;;;;22.00;82.90;;;;;;5043698;28;20497;-78
2022/07/23 07:47:38;;;;;;;;;;;22.00;83.00;;;;;;5045727;28;19976;-78
2022/07/23 07:50:07;;;;;;;;;;;22.00;82.90;;;;;;5042147;28;20399;-78
2022/07/23 07:52:36;;;;;;;;;;;22.00;82.90;;;;;;5038261;28;19925;-79
2022/07/23 07:55:03;;;;;;;;;;;22.00;82.80;;;;;;5045754;28;19978;-79
2022/07/23 07:57:29;;;;;;;;;;;22.00;82.60;;;;;;5043263;28;19932;-79
2022/07/23 07:59:56;;;;;;;;;;;22.00;82.90;;;;;;5035956;28;19947;-78
2022/07/23 08:02:23;;;;;;;;;;;22.00;83.00;;;;;;5035382;28;20048;-78
2022/07/23 08:04:50;;;;;;;;;;;22.00;83.30;;;;;;5047330;28;19984;-78
2022/07/23 08:07:18;;;;;;;;;;;22.00;83.10;;;;;;5043567;28;20022;-79
2022/07/23 08:09:45;;;;;;;;;;;22.00;83.10;;;;;;5042463;28;20663;-78
2022/07/23 08:12:12;;;;;;;;;;;22.00;83.20;;;;;;5043327;28;19986;-78
2022/07/23 08:14:38;;;;;;;;;;;22.00;83.20;;;;;;5034915;28;20465;-78
2022/07/23 08:17:05;;;;;;;;;;;22.10;83.50;;;;;;5039455;28;19929;-78
2022/07/23 08:19:32;;;;;;;;;;;22.10;83.60;;;;;;5039614;28;20016;-78
2022/07/23 08:21:59;;;;;;;;;;;22.10;83.30;;;;;;5037479;28;19933;-80
2022/07/23 08:24:27;;;;;;;;;;;22.10;83.20;;;;;;5043764;28;19932;-79
2022/07/23 08:26:54;;;;;;;;;;;22.10;83.30;;;;;;5036362;28;19937;-80
2022/07/23 08:29:21;;;;;;;;;;;22.10;83.30;;;;;;5025060;28;19997;-79
2022/07/23 08:31:48;;;;;;;;;;;22.10;83.20;;;;;;5019179;28;19932;-78
2022/07/23 08:34:15;;;;;;;;;;;22.10;83.10;;;;;;5042884;28;19954;-78
2022/07/23 08:36:41;;;;;;;;;;;22.10;83.20;;;;;;5042945;28;19995;-79
2022/07/23 08:39:08;;;;;;;;;;;22.10;83.10;;;;;;5042419;28;19975;-81
2022/07/23 08:41:36;;;;;;;;;;;22.20;85.30;;;;;;5028955;28;20284;-79
2022/07/23 08:44:03;;;;;;;;;;;22.30;86.00;;;;;;5043343;28;19986;-79
2022/07/23 08:46:30;;;;;;;;;;;22.30;85.10;;;;;;5044469;28;19971;-79
2022/07/23 08:48:57;;;;;;;;;;;22.30;85.00;;;;;;5030584;28;19940;-80
2022/07/23 08:51:26;;;;;;;;;;;22.30;84.00;;;;;;5049627;28;19925;-79
2022/07/23 08:53:54;;;;;;;;;;;22.30;83.90;;;;;;5041380;28;20011;-79
2022/07/23 08:56:20;;;;;;;;;;;22.30;83.70;;;;;;5046917;28;20381;-79
2022/07/23 08:58:49;;;;;;;;;;;22.30;83.70;;;;;;5047381;28;19928;-79
2022/07/23 09:01:16;;;;;;;;;;;22.30;84.00;;;;;;5047956;28;19929;-79
2022/07/23 09:03:44;;;;;;;;;;;22.30;83.60;;;;;;5046480;28;19939;-79
2022/07/23 09:06:11;;;;;;;;;;;22.30;83.90;;;;;;5051563;28;20379;-79
2022/07/23 09:08:39;;;;;;;;;;;22.30;84.40;;;;;;5049868;28;19968;-79
2022/07/23 09:11:08;;;;;;;;;;;22.30;84.10;;;;;;5042635;28;20411;-79
2022/07/23 09:13:37;;;;;;;;;;;22.30;83.80;;;;;;5043500;28;20306;-79
2022/07/23 09:16:07;;;;;;;;;;;22.30;83.80;;;;;;5050205;28;20338;-80
2022/07/23 09:18:37;;;;;;;;;;;22.30;83.90;;;;;;5037079;28;19924;-79
2022/07/23 09:21:11;;;;;;;;;;;22.30;83.70;;;;;;5044435;28;20440;-79
2022/07/23 09:23:39;;;;;;;;;;;22.30;83.50;;;;;;5049696;28;19982;-79
2022/07/23 09:26:18;;;;;;;;;;;22.30;83.60;;;;;;5051513;28;20761;-79
2022/07/23 09:28:51;;;;;;;;;;;22.30;83.40;;;;;;5043410;28;19955;-80
2022/07/23 09:31:19;;;;;;;;;;;22.40;83.20;;;;;;5030446;28;19937;-79
2022/07/23 09:33:46;;;;;;;;;;;22.40;83.50;;;;;;5047775;28;19982;-79
2022/07/23 09:36:13;;;;;;;;;;;22.40;84.20;;;;;;5046671;28;19959;-79
2022/07/23 09:38:48;;;;;;;;;;;22.40;84.30;;;;;;5046434;28;19929;-79
2022/07/23 09:41:15;;;;;;;;;;;22.40;84.70;;;;;;5050233;28;19948;-80
2022/07/23 09:43:42;;;;;;;;;;;22.40;84.30;;;;;;5046964;28;20029;-79
2022/07/23 09:46:24;;;;;;;;;;;22.40;85.10;;;;;;5051554;28;20352;-79
2022/07/23 09:48:53;;;;;;;;;;;22.40;84.80;;;;;;5046952;28;19999;-80
2022/07/23 09:51:22;;;;;;;;;;;22.50;85.60;;;;;;5047276;28;19925;-79
2022/07/23 09:53:49;;;;;;;;;;;22.50;84.70;;;;;;5039476;28;19925;-79
2022/07/23 09:56:16;;;;;;;;;;;22.50;84.60;;;;;;5034992;28;19931;-79
2022/07/23 09:58:47;;;;;;;;;;;22.50;84.90;;;;;;5047507;28;19924;-79
2022/07/23 10:01:15;;;;;;;;;;;22.50;84.90;;;;;;5042848;28;19972;-79
2022/07/23 10:03:42;;;;;;;;;;;22.50;84.80;;;;;;5041011;28;19959;-80
2022/07/23 10:06:49;;;;;;;;;;;22.50;84.60;;;;;;5002225;28;20393;-80
2022/07/23 10:09:39;;;;;;;;;;;22.50;84.50;;;;;;5026616;28;20105;-80
2022/07/23 10:15:19;;;;;;;;;;;22.50;84.90;;;;;;5032178;28;19920;-79
2022/07/23 10:17:46;;;;;;;;;;;22.50;84.80;;;;;;5026976;28;19932;-79
2022/07/23 10:20:13;;;;;;;;;;;22.60;84.30;;;;;;5047488;28;19928;-79
2022/07/23 10:22:46;;;;;;;;;;;22.60;85.40;;;;;;5048302;28;19933;-80
2022/07/23 10:25:18;;;;;;;;;;;22.60;84.90;;;;;;5049647;28;19929;-80
2022/07/23 10:28:04;;;;;;;;;;;22.60;84.50;;;;;;5047257;28;20440;-79
2022/07/23 10:30:34;;;;;;;;;;;22.60;84.40;;;;;;5035880;28;19929;-80
2022/07/23 10:33:12;;;;;;;;;;;22.60;85.10;;;;;;5044579;28;19933;-79
2022/07/23 10:35:43;;;;;;;;;;;22.70;85.20;;;;;;5045328;28;20346;-79
2022/07/23 10:38:15;;;;;;;;;;;22.60;85.00;;;;;;5044978;28;19994;-80
2022/07/23 10:40:54;;;;;;;;;;;22.70;84.80;;;;;;5045581;28;20151;-79
2022/07/23 10:43:21;;;;;;;;;;;22.70;84.30;;;;;;5024773;28;19929;-79
2022/07/23 10:45:48;;;;;;;;;;;22.70;84.10;;;;;;5023834;28;19926;-80
2022/07/23 10:48:16;;;;;;;;;;;22.70;84.00;;;;;;5047612;28;19936;-79
2022/07/23 10:50:43;;;;;;;;;;;22.70;84.30;;;;;;5048757;28;19928;-79
2022/07/23 10:53:17;;;;;;;;;;;22.70;84.50;;;;;;5046000;28;19933;-79
2022/07/23 10:55:45;;;;;;;;;;;22.70;84.20;;;;;;5043707;28;20431;-79
2022/07/23 10:58:17;;;;;;;;;;;22.80;84.60;;;;;;5049290;28;19975;-79
2022/07/23 11:00:44;;;;;;;;;;;22.80;84.70;;;;;;5029689;28;19925;-79
2022/07/23 11:03:26;;;;;;;;;;;22.80;85.00;;;;;;5044452;28;19924;-79
2022/07/23 11:05:53;;;;;;;;;;;22.80;85.90;;;;;;5046230;28;19978;-79
2022/07/23 11:08:21;;;;;;;;;;;22.80;85.10;;;;;;5049580;28;20019;-79
2022/07/23 11:10:49;;;;;;;;;;;22.90;84.90;;;;;;5048495;28;20402;-79
2022/07/23 11:13:30;;;;;;;;;;;22.90;85.10;;;;;;5046238;28;20638;-80
2022/07/23 11:16:12;;;;;;;;;;;22.90;85.30;;;;;;5044207;28;19968;-80
2022/07/23 11:18:55;;;;;;;;;;;22.90;84.50;;;;;;5047769;28;19960;-79
2022/07/23 11:21:41;;;;;;;;;;;22.90;84.40;;;;;;5026610;28;19925;-79
2022/07/23 11:24:10;;;;;;;;;;;22.90;84.20;;;;;;5042128;28;19928;-79
2022/07/23 11:26:48;;;;;;;;;;;23.00;83.90;;;;;;5048446;28;19955;-79
2022/07/23 11:29:35;;;;;;;;;;;23.00;84.70;;;;;;5048698;28;19925;-80
2022/07/23 11:32:03;;;;;;;;;;;23.00;85.50;;;;;;5043887;28;20391;-79
2022/07/23 11:34:31;;;;;;;;;;;23.10;84.70;;;;;;5028613;28;19978;-79
2022/07/23 11:36:57;;;;;;;;;;;23.10;84.40;;;;;;5049746;28;20016;-79
2022/07/23 11:39:26;;;;;;;;;;;23.10;84.20;;;;;;5044163;28;19978;-79
2022/07/23 11:41:53;;;;;;;;;;;23.10;84.00;;;;;;5031000;28;20375;-79
2022/07/23 11:44:26;;;;;;;;;;;23.10;84.10;;;;;;5048760;28;20027;-80
2022/07/23 11:46:57;;;;;;;;;;;23.20;84.40;;;;;;5027297;28;19932;-80
2022/07/23 11:49:24;;;;;;;;;;;23.20;85.50;;;;;;5044166;28;19992;-79
2022/07/23 11:52:03;;;;;;;;;;;23.30;85.80;;;;;;5030093;28;19972;-79
2022/07/23 11:54:32;;;;;;;;;;;23.30;85.50;;;;;;5046917;28;19936;-79
2022/07/23 11:56:59;;;;;;;;;;;23.30;85.90;;;;;;5045648;28;19948;-79
2022/07/23 11:59:27;;;;;;;;;;;23.30;85.90;;;;;;5047685;28;20225;-80
2022/07/23 12:01:58;;;;;;;;;;;23.40;85.80;;;;;;5045711;28;19955;-79
2022/07/23 12:04:25;;;;;;;;;;;23.40;85.70;;;;;;5044913;28;20450;-79
2022/07/23 12:06:52;;;;;;;;;;;23.40;85.20;;;;;;5049573;28;19925;-80
2022/07/23 12:09:19;;;;;;;;;;;23.40;85.30;;;;;;5049818;28;19936;-79
2022/07/23 12:11:58;;;;;;;;;;;23.40;85.10;;;;;;5050300;28;20366;-80
2022/07/23 12:14:25;;;;;;;;;;;23.40;85.00;;;;;;5045951;28;19928;-79
2022/07/23 12:17:07;;;;;;;;;;;23.50;85.00;;;;;;5052195;28;19972;-80
2022/07/23 12:19:34;;;;;;;;;;;23.50;85.50;;;;;;5054006;28;19987;-80
2022/07/23 12:22:01;;;;;;;;;;;23.50;86.00;;;;;;5053103;28;19984;-79
2022/07/23 12:24:28;;;;;;;;;;;23.50;86.80;;;;;;5047855;28;19925;-79
2022/07/23 12:27:13;;;;;;;;;;;23.50;87.30;;;;;;5051339;28;19936;-80
2022/07/23 12:29:40;;;;;;;;;;;23.50;87.20;;;;;;5051129;28;20280;-80
2022/07/23 12:32:17;;;;;;;;;;;23.50;87.60;;;;;;5049746;28;20325;-80
2022/07/23 12:34:44;;;;;;;;;;;23.60;87.40;;;;;;5052501;28;19961;-80
2022/07/23 12:37:25;;;;;;;;;;;23.60;87.40;;;;;;5053266;28;20438;-80
2022/07/23 12:39:52;;;;;;;;;;;23.60;87.30;;;;;;5046511;28;20338;-80
2022/07/23 12:42:20;;;;;;;;;;;23.60;87.30;;;;;;5029090;28;19931;-80
2022/07/23 12:45:06;;;;;;;;;;;23.50;87.20;;;;;;5049966;28;19986;-80
2022/07/23 12:47:47;;;;;;;;;;;23.60;87.20;;;;;;5052279;28;19961;-80
2022/07/23 12:50:29;;;;;;;;;;;23.60;87.30;;;;;;5046703;28;19936;-80
2022/07/23 12:53:02;;;;;;;;;;;23.60;87.00;;;;;;5048303;28;19925;-80
2022/07/23 12:55:29;;;;;;;;;;;23.60;87.00;;;;;;5033632;28;19929;-80
2022/07/23 12:58:05;;;;;;;;;;;23.60;87.00;;;;;;5046929;28;19925;-81
2022/07/23 13:00:32;;;;;;;;;;;23.70;87.00;;;;;;5044048;28;20067;-80
2022/07/23 13:02:59;;;;;;;;;;;23.70;86.80;;;;;;5035206;28;20465;-80
2022/07/23 13:05:26;;;;;;;;;;;23.70;88.50;;;;;;5039715;28;19978;-80
2022/07/23 13:07:53;;;;;;;;;;;23.70;90.00;;;;;;5044793;28;19924;-81
2022/07/23 13:10:19;;;;;;;;;;;23.70;89.20;;;;;;5044125;28;19932;-81
2022/07/23 13:12:46;;;;;;;;;;;23.70;87.90;;;;;;5028148;28;20035;-80
2022/07/23 13:15:14;;;;;;;;;;;23.80;87.90;;;;;;5048534;28;20329;-81
2022/07/23 13:17:44;;;;;;;;;;;23.80;87.90;;;;;;5028584;28;19929;-81
2022/07/23 13:20:11;;;;;;;;;;;23.80;87.80;;;;;;5050891;28;19933;-81
2022/07/23 13:22:38;;;;;;;;;;;23.80;87.40;;;;;;5046942;28;19947;-80
2022/07/23 13:25:05;;;;;;;;;;;23.90;87.40;;;;;;5040261;28;19936;-79
2022/07/23 13:27:32;;;;;;;;;;;23.90;87.50;;;;;;5041604;28;19968;-80
2022/07/23 13:29:59;;;;;;;;;;;23.90;87.50;;;;;;5024898;28;19948;-79
2022/07/23 13:32:27;;;;;;;;;;;23.90;87.70;;;;;;5037665;28;20024;-79
2022/07/23 13:34:54;;;;;;;;;;;24.00;87.80;;;;;;5039175;28;19933;-79
2022/07/23 13:37:21;;;;;;;;;;;24.00;87.90;;;;;;5040444;28;19931;-80
2022/07/23 13:39:48;;;;;;;;;;;24.00;87.70;;;;;;5025752;28;19940;-79
2022/07/23 13:42:15;;;;;;;;;;;24.00;88.50;;;;;;5047874;28;19925;-79
2022/07/23 13:44:42;;;;;;;;;;;24.10;87.90;;;;;;5042710;28;19932;-79
2022/07/23 13:47:08;;;;;;;;;;;24.10;88.00;;;;;;5043436;28;19933;-79
2022/07/23 13:49:37;;;;;;;;;;;24.10;88.90;;;;;;5046315;28;19929;-79
2022/07/23 13:52:04;;;;;;;;;;;24.10;87.90;;;;;;5050435;28;19939;-79
2022/07/23 13:54:30;;;;;;;;;;;24.20;88.00;;;;;;5044924;28;20106;-79
2022/07/23 13:56:57;;;;;;;;;;;24.20;88.10;;;;;;5024914;28;20010;-79
2022/07/23 13:59:24;;;;;;;;;;;24.20;88.60;;;;;;5048812;28;20020;-80
2022/07/23 14:01:51;;;;;;;;;;;24.20;88.30;;;;;;5044306;28;19932;-80
2022/07/23 14:04:18;;;;;;;;;;;24.30;88.20;;;;;;5048000;28;19933;-79
2022/07/23 14:06:46;;;;;;;;;;;24.30;88.00;;;;;;5037663;28;20016;-79
2022/07/23 14:09:13;;;;;;;;;;;24.30;88.20;;;;;;5028492;28;20391;-79
2022/07/23 14:11:40;;;;;;;;;;;;;;;;;;5042804;28;19986;-80
2022/07/23 14:14:07;;;;;;;;;;;24.40;87.40;;;;;;5047583;28;19929;-80
2022/07/23 14:16:34;;;;;;;;;;;24.40;87.90;;;;;;5043752;28;19929;-80
2022/07/23 14:19:01;;;;;;;;;;;24.40;87.90;;;;;;5041380;28;19933;-80
2022/07/23 14:21:27;;;;;;;;;;;24.50;88.30;;;;;;5043771;28;20166;-80
2022/07/23 14:23:56;;;;;;;;;;;24.50;88.00;;;;;;5048665;28;19933;-79
2022/07/23 14:26:22;;;;;;;;;;;24.50;87.90;;;;;;5048889;28;19925;-79
2022/07/23 14:28:49;;;;;;;;;;;24.50;88.40;;;;;;5046239;28;20391;-79
2022/07/23 14:31:16;;;;;;;;;;;24.60;88.10;;;;;;5047235;28;20321;-79
2022/07/23 14:33:43;;;;;;;;;;;24.60;88.10;;;;;;5049608;28;19947;-79
2022/07/23 14:36:10;;;;;;;;;;;24.60;88.00;;;;;;5050702;28;20411;-79